Time;durP1;ratioP1;P1;durP2;ratioP2;P2;SDS_P1;SDS_P2;PMS_P1;PMS_P2;Temp;Humidity;BMP_temperature;BMP_pressure;BME280_temperature;BME280_humidity;BME280_pressure;Samples;Min_cycle;Max_cycle;Signal;HPM_P1;HPM_P2
2021/08/23 00:00:43;;;;;;;9.85;3.65;;;;;;;;;;5111295;28;20077;-68
2021/08/23 00:03:09;;;;;;;8.18;3.58;;;;;;;;;;5110678;28;20028;-70
2021/08/23 00:05:35;;;;;;;8.02;3.58;;;;;;;;;;5109891;28;20028;-68
2021/08/23 00:08:02;;;;;;;6.15;2.92;;;;;;;;;;5109847;28;20533;-68
2021/08/23 00:11:59;;;;;;;5.60;2.90;;;;;;;;;;5111694;27;20385;-70
2021/08/23 00:14:25;;;;;;;6.18;2.83;;;;;;;;;;5109945;28;20028;-70
2021/08/23 00:16:51;;;;;;;5.63;2.90;;;;;;;;;;5110742;28;20024;-69
2021/08/23 00:19:17;;;;;;;6.55;3.08;;;;;;;;;;5111164;28;20024;-69
2021/08/23 00:21:44;;;;;;;5.70;3.00;;;;;;;;;;5111124;28;20516;-69
2021/08/23 00:24:21;;;;;;;8.30;3.88;;;;;;;;;;5110876;28;20114;-69
2021/08/23 00:26:50;;;;;;;9.48;2.80;;;;;;;;;;5111066;28;20028;-69
2021/08/23 00:29:16;;;;;;;7.13;3.67;;;;;;;;;;5111236;28;20411;-69
2021/08/23 00:32:04;;;;;;;7.32;3.17;;;;;;;;;;5110981;27;20520;-67
2021/08/23 00:37:20;;;;;;;8.23;4.20;;;;;;;;;;5110912;27;20316;-68
2021/08/23 00:39:47;;;;;;;9.55;3.85;;;;;;;;;;5111330;28;20047;-69
2021/08/23 00:42:13;;;;;;;9.10;3.83;;;;;;;;;;5111018;28;20069;-69
2021/08/23 00:44:40;;;;;;;10.10;5.20;;;;;;;;;;5110766;28;20484;-69
2021/08/23 00:47:07;;;;;;;9.80;5.28;;;;;;;;;;5111165;28;20028;-68
2021/08/23 00:49:33;;;;;;;11.00;5.22;;;;;;;;;;5109845;28;20384;-68
2021/08/23 00:52:00;;;;;;;7.32;3.65;;;;;;;;;;5110538;28;20052;-68
2021/08/23 00:56:20;;;;;;;6.35;3.30;;;;;;;;;;5111699;27;20404;-70
2021/08/23 00:58:47;;;;;;;8.43;3.45;;;;;;;;;;5110955;28;20024;-69
2021/08/23 01:01:21;;;;;;;6.00;3.40;;;;;;;;;;5110033;28;20042;-68
2021/08/23 01:05:13;;;;;;;7.85;3.83;;;;;;;;;;5111382;27;20388;-67
2021/08/23 01:07:43;;;;;;;6.72;3.63;;;;;;;;;;5109966;28;20024;-71
2021/08/23 01:13:17;;;;;;;8.02;3.55;;;;;;;;;;5110955;27;20477;-70
2021/08/23 01:15:43;;;;;;;7.10;3.25;;;;;;;;;;5111225;28;20024;-68
2021/08/23 01:18:10;;;;;;;7.82;3.42;;;;;;;;;;5126855;28;20041;-69
2021/08/23 01:20:37;;;;;;;4.53;2.60;;;;;;;;;;5110824;28;20371;-68
2021/08/23 01:23:04;;;;;;;5.97;3.28;;;;;;;;;;5126925;28;20101;-68
2021/08/23 01:27:10;;;;;;;5.93;2.70;;;;;;;;;;5070507;28;20461;-67
2021/08/23 01:31:15;;;;;;;7.90;3.40;;;;;;;;;;5111289;27;20397;-67
2021/08/23 01:33:42;;;;;;;5.70;3.10;;;;;;;;;;5110961;28;20623;-68
2021/08/23 01:36:08;;;;;;;5.57;2.95;;;;;;;;;;5111273;28;20069;-67
2021/08/23 01:40:28;;;;;;;6.63;3.05;;;;;;;;;;5110802;27;20377;-69
2021/08/23 01:42:54;;;;;;;6.22;3.03;;;;;;;;;;5111222;28;20027;-68
2021/08/23 01:48:28;;;;;;;4.28;2.38;;;;;;;;;;5131536;27;20312;-67
2021/08/23 01:50:54;;;;;;;4.63;2.78;;;;;;;;;;5111515;28;20103;-67
2021/08/23 01:53:37;;;;;;;4.60;2.78;;;;;;;;;;5131737;27;20666;-67
2021/08/23 01:56:43;;;;;;;4.95;2.38;;;;;;;;;;5131848;27;20309;-68
2021/08/23 02:01:46;;;;;;;5.75;2.60;;;;;;;;;;5111241;27;20385;-68
2021/08/23 02:05:00;;;;;;;5.80;2.60;;;;;;;;;;5111401;27;20901;-68
2021/08/23 02:07:26;;;;;;;5.43;2.67;;;;;;;;;;5111377;28;20019;-68
2021/08/23 02:10:28;;;;;;;6.65;2.72;;;;;;;;;;5070646;28;20399;-68
2021/08/23 02:12:55;;;;;;;5.18;2.60;;;;;;;;;;5070656;28;20082;-69
2021/08/23 02:17:18;;;;;;;4.50;2.55;;;;;;;;;;5111072;27;20380;-68
2021/08/23 02:19:44;;;;;;;4.80;2.75;;;;;;;;;;5111265;28;20020;-69
2021/08/23 02:22:26;;;;;;;4.38;2.65;;;;;;;;;;5111577;27;20442;-68
2021/08/23 02:24:52;;;;;;;5.10;2.70;;;;;;;;;;5110921;28;20024;-67
2021/08/23 02:27:18;;;;;;;5.72;2.97;;;;;;;;;;5111185;28;20020;-68
2021/08/23 02:29:44;;;;;;;6.00;2.80;;;;;;;;;;5110759;28;20031;-68
2021/08/23 02:32:55;;;;;;;5.53;2.92;;;;;;;;;;5111603;27;20397;-67
2021/08/23 02:35:22;;;;;;;6.32;3.40;;;;;;;;;;5111181;28;20028;-67
2021/08/23 02:37:48;;;;;;;7.28;3.78;;;;;;;;;;5111001;28;20526;-68
2021/08/23 02:40:14;;;;;;;7.15;3.90;;;;;;;;;;5111164;28;20024;-68
2021/08/23 02:42:41;;;;;;;13.77;8.15;;;;;;;;;;5111164;28;20020;-69
2021/08/23 02:45:08;;;;;;;10.23;5.45;;;;;;;;;;5110641;28;20439;-68
2021/08/23 02:47:36;;;;;;;10.65;5.60;;;;;;;;;;5111092;28;20028;-68
2021/08/23 02:51:17;;;;;;;13.60;3.95;;;;;;;;;;5110728;27;20693;-71
2021/08/23 02:57:24;;;;;;;6.70;3.65;;;;;;;;;;5070876;28;20419;-68
2021/08/23 03:01:39;;;;;;;6.25;2.75;;;;;;;;;;5111536;27;20380;-70
2021/08/23 03:04:05;;;;;;;7.15;2.85;;;;;;;;;;5111274;28;20020;-69
2021/08/23 03:06:32;;;;;;;6.45;3.50;;;;;;;;;;5110922;28;20024;-70
2021/08/23 03:08:58;;;;;;;4.20;2.53;;;;;;;;;;5111063;28;20027;-69
2021/08/23 03:11:26;;;;;;;6.47;2.85;;;;;;;;;;5111177;28;20020;-71
2021/08/23 03:14:26;;;;;;;6.82;3.20;;;;;;;;;;5111313;27;20401;-69
2021/08/23 03:16:52;;;;;;;16.52;3.22;;;;;;;;;;5111340;28;20085;-68
2021/08/23 03:19:18;;;;;;;6.82;3.30;;;;;;;;;;5110822;28;20027;-68
2021/08/23 03:21:44;;;;;;;6.22;2.72;;;;;;;;;;5111197;28;20016;-68
2021/08/23 03:24:11;;;;;;;4.80;2.55;;;;;;;;;;5109723;28;20020;-68
2021/08/23 03:26:38;;;;;;;5.53;2.97;;;;;;;;;;5110723;28;20024;-68
2021/08/23 03:30:53;;;;;;;5.78;3.72;;;;;;;;;;5111338;27;20408;-67
2021/08/23 03:33:20;;;;;;;6.57;3.58;;;;;;;;;;5111141;28;20032;-67
2021/08/23 03:37:17;;;;;;;8.63;4.35;;;;;;;;;;5131734;27;20309;-68
2021/08/23 03:39:44;;;;;;;6.38;3.42;;;;;;;;;;5111282;28;20075;-68
2021/08/23 03:42:10;;;;;;;5.78;3.35;;;;;;;;;;5092466;28;20476;-68
2021/08/23 03:45:53;;;;;;;9.20;3.28;;;;;;;;;;5131711;27;20313;-67
2021/08/23 03:48:19;;;;;;;4.63;3.00;;;;;;;;;;5110988;28;20085;-69
2021/08/23 03:50:46;;;;;;;7.30;2.75;;;;;;;;;;5111105;28;20032;-69
2021/08/23 03:55:22;;;;;;;5.60;2.90;;;;;;;;;;5111014;27;20384;-68
2021/08/23 03:57:49;;;;;;;6.40;3.40;;;;;;;;;;5111227;28;20503;-70
2021/08/23 04:00:15;;;;;;;6.22;3.20;;;;;;;;;;5111217;28;20430;-68
2021/08/23 04:02:41;;;;;;;5.28;3.08;;;;;;;;;;5110895;28;20042;-69
2021/08/23 04:05:08;;;;;;;9.05;3.10;;;;;;;;;;5111133;28;20016;-69
2021/08/23 04:07:34;;;;;;;7.15;3.40;;;;;;;;;;5111145;28;20103;-68
2021/08/23 04:10:00;;;;;;;5.70;2.85;;;;;;;;;;5110711;28;20055;-68
2021/08/23 04:13:37;;;;;;;5.90;3.42;;;;;;;;;;5070816;28;20429;-67
2021/08/23 04:16:03;;;;;;;5.20;3.08;;;;;;;;;;5070362;28;20086;-68
2021/08/23 04:20:39;;;;;;;8.38;3.63;;;;;;;;;;5111267;27;20920;-69
2021/08/23 04:25:06;;;;;;;7.88;4.43;;;;;;;;;;5111307;27;20524;-68
2021/08/23 04:28:17;;;;;;;6.38;3.85;;;;;;;;;;5031033;28;20426;-68
2021/08/23 04:32:05;;;;;;;7.22;3.30;;;;;;;;;;4994724;28;1604902;-69
2021/08/23 04:34:31;;;;;;;8.60;4.20;;;;;;;;;;5050707;28;20104;-69
2021/08/23 04:37:03;;;;;;;9.40;4.45;;;;;;;;;;5050250;28;20017;-69
2021/08/23 04:39:30;;;;;;;6.35;3.50;;;;;;;;;;5050915;28;20028;-69
2021/08/23 04:41:56;;;;;;;10.25;4.13;;;;;;;;;;5050575;28;20049;-69
2021/08/23 04:44:22;;;;;;;11.23;5.30;;;;;;;;;;5050098;28;20063;-69
2021/08/23 04:50:45;;;;;;;11.20;5.07;;;;;;;;;;5173398;27;20114;-67
2021/08/23 04:53:11;;;;;;;8.73;3.53;;;;;;;;;;5152598;27;20091;-67
2021/08/23 04:55:37;;;;;;;8.80;3.80;;;;;;;;;;5152342;27;20374;-70
2021/08/23 04:59:59;;;;;;;8.82;3.60;;;;;;;;;;5070617;28;20878;-68
2021/08/23 05:04:10;;;;;;;7.82;4.13;;;;;;;;;;5111361;27;20896;-68
2021/08/23 05:06:36;;;;;;;8.18;3.72;;;;;;;;;;5108820;28;20027;-68
2021/08/23 05:09:02;;;;;;;8.30;3.67;;;;;;;;;;5127831;28;20539;-67
2021/08/23 05:11:29;;;;;;;5.20;3.38;;;;;;;;;;5129671;28;20024;-68
2021/08/23 05:13:56;;;;;;;4.57;3.22;;;;;;;;;;5131556;28;20443;-68
2021/08/23 05:16:22;;;;;;;5.65;3.15;;;;;;;;;;5131654;28;20094;-68
2021/08/23 05:19:20;;;;;;;5.55;3.78;;;;;;;;;;5089781;27;20731;-67
2021/08/23 05:21:47;;;;;;;7.18;3.85;;;;;;;;;;5090791;28;20074;-68
2021/08/23 05:24:13;;;;;;;7.22;3.38;;;;;;;;;;5090860;28;20017;-68
2021/08/23 05:26:39;;;;;;;5.80;3.33;;;;;;;;;;5089087;28;20419;-68
2021/08/23 05:29:06;;;;;;;5.03;3.28;;;;;;;;;;5090659;28;20112;-68
2021/08/23 05:31:32;;;;;;;6.35;3.75;;;;;;;;;;5090687;28;20024;-69
2021/08/23 05:33:58;;;;;;;6.47;2.95;;;;;;;;;;5090091;28;20032;-68
2021/08/23 05:36:24;;;;;;;5.97;3.30;;;;;;;;;;5089189;28;20029;-69
2021/08/23 05:38:51;;;;;;;9.25;3.72;;;;;;;;;;5090518;28;20036;-68
2021/08/23 05:41:17;;;;;;;7.57;3.83;;;;;;;;;;5090061;28;20021;-68
2021/08/23 05:43:43;;;;;;;6.47;3.42;;;;;;;;;;5090357;28;20039;-69
2021/08/23 05:48:05;;;;;;;6.38;3.45;;;;;;;;;;5110885;27;20953;-69
2021/08/23 05:50:31;;;;;;;6.55;3.65;;;;;;;;;;5111107;28;20028;-69
2021/08/23 05:52:57;;;;;;;6.50;3.45;;;;;;;;;;5126840;28;20019;-69
2021/08/23 05:55:24;;;;;;;6.93;3.80;;;;;;;;;;5110691;28;20095;-70
2021/08/23 05:57:50;;;;;;;9.48;4.30;;;;;;;;;;5110898;28;20492;-70
2021/08/23 06:00:19;;;;;;;7.45;3.80;;;;;;;;;;5110428;28;20099;-71
2021/08/23 06:02:45;;;;;;;7.25;3.60;;;;;;;;;;5109839;28;20024;-71
2021/08/23 06:05:11;;;;;;;7.35;3.83;;;;;;;;;;5109346;28;20016;-68
2021/08/23 06:07:38;;;;;;;9.35;4.25;;;;;;;;;;5109914;28;20173;-68
2021/08/23 06:10:04;;;;;;;7.45;3.85;;;;;;;;;;5110582;28;20146;-68
2021/08/23 06:12:50;;;;;;;6.78;4.18;;;;;;;;;;5070846;27;20391;-67
2021/08/23 06:15:17;;;;;;;11.07;5.15;;;;;;;;;;5065870;28;20478;-68
2021/08/23 06:17:43;;;;;;;6.35;4.00;;;;;;;;;;5070007;28;20029;-68
2021/08/23 06:20:53;;;;;;;8.43;4.25;;;;;;;;;;5068767;28;20449;-67
2021/08/23 06:23:19;;;;;;;9.38;4.63;;;;;;;;;;5069395;28;20033;-68
2021/08/23 06:25:46;;;;;;;7.00;4.10;;;;;;;;;;5068220;28;20521;-68
2021/08/23 06:28:12;;;;;;;7.03;3.70;;;;;;;;;;5068059;28;20378;-68
2021/08/23 06:31:43;;;;;;;10.57;4.10;;;;;;;;;;5108954;27;20435;-70
2021/08/23 06:34:09;;;;;;;7.78;3.88;;;;;;;;;;5109588;28;20101;-70
2021/08/23 06:36:36;;;;;;;7.50;4.38;;;;;;;;;;5107697;28;20028;-70
2021/08/23 06:40:41;;;;;;;5.95;3.63;;;;;;;;;;5070412;28;20522;-68
2021/08/23 06:43:07;;;;;;;7.80;3.95;;;;;;;;;;5068832;28;20370;-68
2021/08/23 06:45:33;;;;;;;9.02;4.45;;;;;;;;;;5069648;28;20059;-70
2021/08/23 06:49:08;;;;;;;6.85;4.10;;;;;;;;;;5070294;28;20383;-67
2021/08/23 06:53:21;;;;;;;10.02;4.10;;;;;;;;;;5109093;27;20381;-68
2021/08/23 06:55:47;;;;;;;7.22;4.05;;;;;;;;;;5124069;28;20062;-68
2021/08/23 06:58:13;;;;;;;7.93;5.13;;;;;;;;;;5126002;28;20024;-69
2021/08/23 07:01:29;;;;;;;10.00;5.20;;;;;;;;;;5110072;27;20392;-68
2021/08/23 07:03:55;;;;;;;7.65;4.75;;;;;;;;;;5109093;28;20384;-68
2021/08/23 07:06:21;;;;;;;6.15;3.55;;;;;;;;;;5108786;28;20530;-68
2021/08/23 07:08:48;;;;;;;7.10;4.15;;;;;;;;;;5108877;28;20441;-68
2021/08/23 07:11:14;;;;;;;7.63;4.03;;;;;;;;;;5107186;28;20032;-70
2021/08/23 07:13:41;;;;;;;6.82;3.65;;;;;;;;;;5102351;28;20020;-71
2021/08/23 07:16:07;;;;;;;8.65;5.07;;;;;;;;;;5109742;28;20542;-71
2021/08/23 07:20:33;;;;;;;7.90;4.07;;;;;;;;;;5110447;27;20500;-70
2021/08/23 07:22:59;;;;;;;9.85;4.53;;;;;;;;;;5110918;28;20026;-72
2021/08/23 07:25:25;;;;;;;6.78;4.47;;;;;;;;;;5104595;28;20039;-71
2021/08/23 07:28:56;;;;;;;6.45;3.80;;;;;;;;;;5108237;27;20438;-70
2021/08/23 07:31:22;;;;;;;6.88;3.88;;;;;;;;;;5110221;28;20506;-71
2021/08/23 07:33:49;;;;;;;6.97;4.20;;;;;;;;;;5107947;28;20100;-71
2021/08/23 07:36:15;;;;;;;7.10;4.05;;;;;;;;;;5108504;28;20020;-72
2021/08/23 07:38:41;;;;;;;6.55;4.18;;;;;;;;;;5108979;28;20084;-72
2021/08/23 07:41:07;;;;;;;7.20;4.22;;;;;;;;;;5109628;28;20467;-70
2021/08/23 07:43:34;;;;;;;6.57;4.07;;;;;;;;;;5107002;28;20791;-70
2021/08/23 07:46:00;;;;;;;6.50;4.43;;;;;;;;;;5105147;28;20495;-67
2021/08/23 07:48:26;;;;;;;7.50;4.45;;;;;;;;;;5107122;28;20035;-67
2021/08/23 07:50:54;;;;;;;9.02;4.15;;;;;;;;;;5110415;28;20031;-67
2021/08/23 07:53:21;;;;;;;7.82;4.80;;;;;;;;;;5109005;28;20042;-68
2021/08/23 07:59:09;;;;;;;7.10;4.70;;;;;;;;;;5109836;27;21048;-66
2021/08/23 08:01:35;;;;;;;7.97;3.90;;;;;;;;;;5109697;28;20444;-66
2021/08/23 08:04:01;;;;;;;8.50;4.28;;;;;;;;;;5109602;28;20435;-67
2021/08/23 08:06:27;;;;;;;7.63;4.88;;;;;;;;;;5110888;28;20028;-67
2021/08/23 08:08:54;;;;;;;6.35;4.25;;;;;;;;;;5108882;28;20042;-67
2021/08/23 08:11:20;;;;;;;9.00;4.45;;;;;;;;;;5110630;28;20128;-67
2021/08/23 08:13:47;;;;;;;6.28;3.95;;;;;;;;;;5110432;28;20429;-67
2021/08/23 08:16:13;;;;;;;8.65;4.30;;;;;;;;;;5108908;28;20027;-67
2021/08/23 08:18:39;;;;;;;6.55;4.45;;;;;;;;;;5109622;28;20081;-67
2021/08/23 08:21:05;;;;;;;6.57;4.25;;;;;;;;;;5106188;28;20048;-67
2021/08/23 08:23:32;;;;;;;6.50;4.45;;;;;;;;;;5107821;28;20032;-66
2021/08/23 08:25:58;;;;;;;7.28;4.68;;;;;;;;;;5110355;28;20051;-67
2021/08/23 08:29:14;;;;;;;8.93;4.65;;;;;;;;;;5130863;27;20313;-67
2021/08/23 08:31:41;;;;;;;7.07;4.10;;;;;;;;;;5092276;28;20476;-67
2021/08/23 08:34:07;;;;;;;7.38;4.35;;;;;;;;;;5110841;28;20020;-65
2021/08/23 08:36:33;;;;;;;8.68;4.28;;;;;;;;;;5108151;28;20031;-66
2021/08/23 08:38:59;;;;;;;8.30;4.13;;;;;;;;;;5093467;28;20063;-66
2021/08/23 08:41:30;;;;;;;7.47;3.95;;;;;;;;;;5089701;28;20017;-66
2021/08/23 08:43:56;;;;;;;9.02;4.88;;;;;;;;;;5070623;28;20036;-65
2021/08/23 08:46:22;;;;;;;7.22;4.03;;;;;;;;;;5089465;28;20024;-66
2021/08/23 08:48:48;;;;;;;7.00;3.67;;;;;;;;;;5090065;28;20078;-66
2021/08/23 08:51:15;;;;;;;6.50;3.92;;;;;;;;;;5087377;28;20469;-69
2021/08/23 08:53:41;;;;;;;7.07;3.88;;;;;;;;;;5070062;28;20056;-70
2021/08/23 08:56:07;;;;;;;6.90;4.32;;;;;;;;;;5089702;28;20520;-71
2021/08/23 08:58:34;;;;;;;6.03;3.80;;;;;;;;;;5071257;28;20055;-72
2021/08/23 09:01:02;;;;;;;8.25;4.15;;;;;;;;;;5090225;28;20013;-71
2021/08/23 09:03:29;;;;;;;7.07;4.00;;;;;;;;;;5089838;28;20016;-72
2021/08/23 09:06:03;;;;;;;5.30;3.65;;;;;;;;;;5089790;28;20016;-72
2021/08/23 09:08:29;;;;;;;6.22;3.70;;;;;;;;;;5088996;28;20028;-72
2021/08/23 09:10:56;;;;;;;7.82;4.20;;;;;;;;;;5089578;28;20027;-70
2021/08/23 09:13:24;;;;;;;6.10;3.47;;;;;;;;;;5089349;28;20609;-70
2021/08/23 09:15:52;;;;;;;7.40;3.55;;;;;;;;;;5087754;28;20020;-72
2021/08/23 09:18:36;;;;;;;14.48;4.05;;;;;;;;;;5082975;28;20559;-74
2021/08/23 09:21:07;;;;;;;11.93;3.70;;;;;;;;;;5086794;28;20024;-74
2021/08/23 09:23:40;;;;;;;6.07;3.20;;;;;;;;;;5088652;28;20384;-71
2021/08/23 09:26:11;;;;;;;6.20;3.53;;;;;;;;;;5088230;28;20142;-71
2021/08/23 09:28:38;;;;;;;9.48;3.83;;;;;;;;;;5072834;28;20397;-70
2021/08/23 09:31:05;;;;;;;7.00;3.88;;;;;;;;;;5068837;28;20073;-71
2021/08/23 09:33:40;;;;;;;6.30;3.60;;;;;;;;;;5068670;28;20020;-70
2021/08/23 09:36:06;;;;;;;5.78;3.55;;;;;;;;;;5068671;28;20099;-66
2021/08/23 09:38:32;;;;;;;6.65;3.78;;;;;;;;;;5066767;28;20025;-67
2021/08/23 09:41:04;;;;;;;5.70;3.53;;;;;;;;;;5056112;28;20025;-66
2021/08/23 09:43:31;;;;;;;6.83;3.30;;;;;;;;;;5055766;28;20028;-68
2021/08/23 09:46:01;;;;;;;5.97;3.55;;;;;;;;;;5055190;28;20753;-66
2021/08/23 09:48:28;;;;;;;4.50;2.90;;;;;;;;;;5055819;28;20033;-66
2021/08/23 09:50:54;;;;;;;6.75;3.90;;;;;;;;;;5055577;28;20021;-67
2021/08/23 09:53:21;;;;;;;6.70;3.80;;;;;;;;;;5055127;28;20104;-66
2021/08/23 09:55:51;;;;;;;7.15;3.53;;;;;;;;;;5054914;28;20052;-67
2021/08/23 09:58:18;;;;;;;8.05;3.50;;;;;;;;;;5060175;28;20024;-67
2021/08/23 10:00:44;;;;;;;5.65;3.28;;;;;;;;;;5078443;28;20017;-67
2021/08/23 10:03:37;;;;;;;6.68;3.47;;;;;;;;;;5035326;28;20053;-66
2021/08/23 10:06:03;;;;;;;6.95;4.03;;;;;;;;;;5032576;28;20485;-65
2021/08/23 10:08:30;;;;;;;6.10;3.72;;;;;;;;;;5054660;28;20110;-66
2021/08/23 10:10:56;;;;;;;6.68;3.33;;;;;;;;;;5055328;28;20047;-67
2021/08/23 10:13:23;;;;;;;4.60;2.88;;;;;;;;;;5054752;28;20040;-67
2021/08/23 10:15:49;;;;;;;6.28;3.30;;;;;;;;;;5036703;28;20025;-66
2021/08/23 10:18:16;;;;;;;4.65;2.88;;;;;;;;;;5054627;28;20120;-66
2021/08/23 10:20:43;;;;;;;5.07;3.15;;;;;;;;;;5054905;28;20029;-66
2021/08/23 10:23:09;;;;;;;10.30;3.28;;;;;;;;;;5054504;28;20025;-70
2021/08/23 10:25:36;;;;;;;6.25;2.95;;;;;;;;;;5036907;28;20049;-70
2021/08/23 10:28:10;;;;;;;5.07;3.10;;;;;;;;;;5051037;28;20063;-70
2021/08/23 10:30:39;;;;;;;5.13;3.00;;;;;;;;;;5103588;28;20024;-70
2021/08/23 10:33:19;;;;;;;7.65;3.42;;;;;;;;;;5109129;28;20425;-71
2021/08/23 10:35:53;;;;;;;5.68;3.40;;;;;;;;;;5094663;28;20483;-72
2021/08/23 10:38:20;;;;;;;5.78;3.10;;;;;;;;;;5094910;28;20111;-70
2021/08/23 10:40:48;;;;;;;5.85;3.20;;;;;;;;;;5094942;28;20024;-72
2021/08/23 10:43:18;;;;;;;5.20;3.17;;;;;;;;;;5094472;28;20157;-71
2021/08/23 10:45:46;;;;;;;8.93;3.65;;;;;;;;;;5083598;28;20035;-73
2021/08/23 10:48:14;;;;;;;4.97;2.70;;;;;;;;;;5083497;28;20040;-71
2021/08/23 10:50:40;;;;;;;5.30;2.78;;;;;;;;;;5084179;28;20047;-72
2021/08/23 10:53:16;;;;;;;7.38;3.15;;;;;;;;;;5093333;28;20384;-71
2021/08/23 10:55:42;;;;;;;5.30;3.33;;;;;;;;;;5089574;28;20384;-72
2021/08/23 10:58:09;;;;;;;7.93;3.17;;;;;;;;;;5113073;28;20036;-72
2021/08/23 11:00:40;;;;;;;6.88;2.97;;;;;;;;;;5114113;28;20088;-72
2021/08/23 11:03:06;;;;;;;6.88;3.33;;;;;;;;;;5114600;28;20034;-71
2021/08/23 11:05:34;;;;;;;5.03;2.95;;;;;;;;;;5114707;28;20031;-71
2021/08/23 11:08:12;;;;;;;6.22;2.92;;;;;;;;;;5114801;28;20035;-70
2021/08/23 11:10:40;;;;;;;6.22;2.95;;;;;;;;;;5114211;28;20023;-66
2021/08/23 11:13:16;;;;;;;6.30;2.83;;;;;;;;;;5114685;28;20023;-68
2021/08/23 11:15:43;;;;;;;6.18;2.80;;;;;;;;;;5114532;28;20026;-67
2021/08/23 11:18:14;;;;;;;6.28;3.10;;;;;;;;;;5112832;28;20441;-66
2021/08/23 11:20:42;;;;;;;5.78;2.95;;;;;;;;;;5114439;28;20024;-69
2021/08/23 11:23:09;;;;;;;6.93;2.42;;;;;;;;;;5114587;28;20433;-68
2021/08/23 11:25:43;;;;;;;4.88;2.63;;;;;;;;;;5114075;28;20016;-67
2021/08/23 11:28:12;;;;;;;4.40;2.20;;;;;;;;;;5101813;28;20052;-70
2021/08/23 11:30:42;;;;;;;5.35;2.75;;;;;;;;;;5093880;28;20024;-69
2021/08/23 11:33:10;;;;;;;5.43;2.55;;;;;;;;;;5092814;28;20073;-70
2021/08/23 11:35:36;;;;;;;5.45;2.80;;;;;;;;;;5092559;28;20157;-70
2021/08/23 11:38:05;;;;;;;4.90;2.50;;;;;;;;;;5093900;28;20032;-70
2021/08/23 11:40:31;;;;;;;4.10;2.58;;;;;;;;;;5093560;28;20020;-70
2021/08/23 11:42:59;;;;;;;5.80;2.47;;;;;;;;;;5093802;28;20052;-70
2021/08/23 11:45:30;;;;;;;4.30;2.72;;;;;;;;;;5093629;28;20020;-69
2021/08/23 11:47:56;;;;;;;4.45;1.98;;;;;;;;;;5093909;28;20507;-71
2021/08/23 11:50:23;;;;;;;7.45;2.45;;;;;;;;;;5093818;28;20054;-70
2021/08/23 11:52:50;;;;;;;4.00;2.63;;;;;;;;;;5093463;28;20024;-70
2021/08/23 11:55:27;;;;;;;5.82;2.22;;;;;;;;;;5075578;28;20020;-70
2021/08/23 11:58:00;;;;;;;3.47;2.03;;;;;;;;;;5093831;28;20020;-70
2021/08/23 12:00:28;;;;;;;5.70;2.70;;;;;;;;;;5092390;28;20030;-69
2021/08/23 12:03:04;;;;;;;4.40;1.95;;;;;;;;;;5093288;28;20032;-70
2021/08/23 12:05:34;;;;;;;3.83;2.35;;;;;;;;;;5093642;28;20035;-70
2021/08/23 12:08:00;;;;;;;4.07;2.22;;;;;;;;;;5093091;28;20043;-69
2021/08/23 12:10:29;;;;;;;3.75;2.13;;;;;;;;;;5093493;28;20024;-70
2021/08/23 12:13:09;;;;;;;5.30;2.13;;;;;;;;;;5093476;28;20020;-70
2021/08/23 12:15:36;;;;;;;4.13;2.30;;;;;;;;;;5093141;28;20452;-71
2021/08/23 12:18:09;;;;;;;3.70;2.35;;;;;;;;;;5093492;28;20146;-69
2021/08/23 12:20:35;;;;;;;5.68;2.15;;;;;;;;;;5076791;28;20095;-70
2021/08/23 12:23:02;;;;;;;3.75;2.15;;;;;;;;;;5073317;28;20481;-70
2021/08/23 12:25:28;;;;;;;4.03;2.17;;;;;;;;;;5073054;28;20025;-72
2021/08/23 12:27:54;;;;;;;3.85;2.13;;;;;;;;;;5072572;28;20044;-71
2021/08/23 12:30:27;;;;;;;3.95;2.22;;;;;;;;;;5073495;28;20453;-71
2021/08/23 12:32:53;;;;;;;4.38;2.33;;;;;;;;;;5072962;28;20056;-70
2021/08/23 12:35:30;;;;;;;6.32;2.20;;;;;;;;;;5072800;28;20097;-70
2021/08/23 12:37:56;;;;;;;4.30;2.25;;;;;;;;;;5073120;28;20477;-71
2021/08/23 12:40:23;;;;;;;5.20;1.92;;;;;;;;;;5058714;28;20543;-71
2021/08/23 12:42:59;;;;;;;4.13;2.08;;;;;;;;;;5052567;28;20021;-71
2021/08/23 12:45:25;;;;;;;4.20;2.20;;;;;;;;;;5052763;28;20047;-71
2021/08/23 12:47:52;;;;;;;4.80;2.50;;;;;;;;;;5034098;28;20041;-71
2021/08/23 12:50:19;;;;;;;4.32;2.28;;;;;;;;;;5051694;28;20025;-71
2021/08/23 12:52:45;;;;;;;3.75;2.00;;;;;;;;;;5052915;28;20021;-71
2021/08/23 12:55:11;;;;;;;6.25;2.40;;;;;;;;;;5035164;28;20028;-72
2021/08/23 12:57:38;;;;;;;3.90;1.90;;;;;;;;;;5052601;28;20100;-70
2021/08/23 13:00:07;;;;;;;3.42;1.98;;;;;;;;;;5052843;28;20025;-71
2021/08/23 13:02:34;;;;;;;4.70;2.42;;;;;;;;;;5052477;28;20117;-71
2021/08/23 13:05:00;;;;;;;3.17;1.95;;;;;;;;;;5052929;28;20086;-71
2021/08/23 13:07:26;;;;;;;4.30;2.05;;;;;;;;;;5052914;28;20025;-72
2021/08/23 13:09:52;;;;;;;3.42;1.90;;;;;;;;;;5052138;28;20033;-71
2021/08/23 13:12:19;;;;;;;5.05;1.98;;;;;;;;;;5052567;28;20036;-71
2021/08/23 13:14:45;;;;;;;4.65;2.22;;;;;;;;;;5056496;28;20493;-71
2021/08/23 13:17:11;;;;;;;4.07;2.03;;;;;;;;;;5058271;28;20039;-70
2021/08/23 13:19:37;;;;;;;4.45;2.08;;;;;;;;;;5076453;28;20021;-70
2021/08/23 13:22:04;;;;;;;3.13;1.98;;;;;;;;;;5076564;28;20021;-70
2021/08/23 13:24:30;;;;;;;3.35;1.83;;;;;;;;;;5076118;28;20108;-71
2021/08/23 13:26:56;;;;;;;2.47;1.73;;;;;;;;;;5058139;28;20048;-70
2021/08/23 13:29:23;;;;;;;2.55;1.73;;;;;;;;;;5058435;28;20031;-71
2021/08/23 13:31:49;;;;;;;3.28;1.92;;;;;;;;;;5075860;28;20501;-71
2021/08/23 13:34:15;;;;;;;2.85;1.77;;;;;;;;;;5076183;28;20091;-71
2021/08/23 13:36:42;;;;;;;4.45;1.73;;;;;;;;;;5075968;28;20017;-71
2021/08/23 13:39:08;;;;;;;2.45;1.67;;;;;;;;;;5057956;28;20389;-72
2021/08/23 13:41:34;;;;;;;2.92;1.60;;;;;;;;;;5076198;28;20032;-70
2021/08/23 13:44:00;;;;;;;2.90;1.85;;;;;;;;;;5076024;28;20050;-70
2021/08/23 13:46:26;;;;;;;5.07;1.55;;;;;;;;;;5075704;28;20025;-69
2021/08/23 13:48:52;;;;;;;3.15;1.60;;;;;;;;;;5075941;28;20071;-67
2021/08/23 13:51:19;;;;;;;2.90;1.60;;;;;;;;;;5076040;28;20021;-67
2021/08/23 13:53:45;;;;;;;3.30;1.90;;;;;;;;;;5075648;28;20024;-68
2021/08/23 13:56:11;;;;;;;2.55;1.65;;;;;;;;;;5075846;28;20023;-68
2021/08/23 13:58:37;;;;;;;3.80;1.80;;;;;;;;;;5075778;28;20024;-68
2021/08/23 14:01:03;;;;;;;12.30;2.00;;;;;;;;;;5075382;28;20150;-68
2021/08/23 14:03:30;;;;;;;7.07;1.67;;;;;;;;;;5075475;28;20496;-68
2021/08/23 14:05:56;;;;;;;3.97;1.73;;;;;;;;;;5075331;28;20036;-67
2021/08/23 14:08:22;;;;;;;2.85;1.65;;;;;;;;;;5075486;28;20039;-67
2021/08/23 14:10:48;;;;;;;3.03;1.60;;;;;;;;;;5075584;28;20021;-67
2021/08/23 14:13:15;;;;;;;3.22;1.60;;;;;;;;;;5057222;28;20028;-67
2021/08/23 14:15:41;;;;;;;3.65;2.10;;;;;;;;;;5075872;28;20027;-67
2021/08/23 14:18:07;;;;;;;3.05;1.80;;;;;;;;;;5057555;28;20028;-67
2021/08/23 14:20:33;;;;;;;2.92;1.60;;;;;;;;;;5075084;28;20048;-67
2021/08/23 14:22:59;;;;;;;2.63;1.70;;;;;;;;;;5075484;28;20059;-67
2021/08/23 14:25:26;;;;;;;3.78;1.65;;;;;;;;;;5057315;28;20126;-67
2021/08/23 14:27:52;;;;;;;5.68;1.88;;;;;;;;;;5074790;28;20044;-67
2021/08/23 14:30:18;;;;;;;1.73;1.38;;;;;;;;;;5075271;28;20020;-67
2021/08/23 14:32:44;;;;;;;2.47;1.40;;;;;;;;;;5075328;28;20020;-67
2021/08/23 14:35:10;;;;;;;3.45;1.73;;;;;;;;;;5074751;28;20017;-67
2021/08/23 14:37:37;;;;;;;3.60;1.67;;;;;;;;;;5057249;28;20470;-67
2021/08/23 14:40:03;;;;;;;3.80;1.60;;;;;;;;;;5075088;28;20108;-67
2021/08/23 14:42:30;;;;;;;2.58;1.40;;;;;;;;;;5074673;28;20025;-67
2021/08/23 14:44:56;;;;;;;3.88;1.90;;;;;;;;;;5056911;28;20473;-66
2021/08/23 14:47:22;;;;;;;2.00;1.60;;;;;;;;;;5056966;28;20122;-66
2021/08/23 14:49:48;;;;;;;3.08;1.70;;;;;;;;;;5074584;28;20434;-66
2021/08/23 14:52:17;;;;;;;3.25;1.50;;;;;;;;;;5074890;28;20047;-67
2021/08/23 14:54:44;;;;;;;2.83;1.60;;;;;;;;;;5074802;28;20108;-68
2021/08/23 14:57:10;;;;;;;4.15;1.70;;;;;;;;;;5056469;28;20138;-67
2021/08/23 14:59:36;;;;;;;2.15;1.50;;;;;;;;;;5056799;28;20465;-68
2021/08/23 15:02:03;;;;;;;3.08;1.77;;;;;;;;;;5074291;28;20100;-67
2021/08/23 15:04:29;;;;;;;4.22;1.83;;;;;;;;;;5075054;28;20096;-67
2021/08/23 15:06:55;;;;;;;3.13;1.83;;;;;;;;;;5074465;28;20024;-67
2021/08/23 15:09:21;;;;;;;3.25;1.63;;;;;;;;;;5074172;28;20044;-68
2021/08/23 15:11:47;;;;;;;3.08;1.52;;;;;;;;;;5056561;28;20540;-67
2021/08/23 15:14:14;;;;;;;3.53;1.92;;;;;;;;;;5074382;28;20028;-67
2021/08/23 15:16:40;;;;;;;4.60;1.80;;;;;;;;;;5073937;28;20025;-67
2021/08/23 15:19:06;;;;;;;1.67;1.30;;;;;;;;;;5074327;28;20020;-67
2021/08/23 15:21:32;;;;;;;2.47;1.42;;;;;;;;;;5074269;28;20025;-67
2021/08/23 15:23:59;;;;;;;2.38;1.52;;;;;;;;;;5055936;28;20020;-67
2021/08/23 15:26:25;;;;;;;4.10;1.42;;;;;;;;;;5074420;28;20101;-67
2021/08/23 15:28:52;;;;;;;4.05;1.92;;;;;;;;;;5073896;28;20047;-68
2021/08/23 15:31:18;;;;;;;2.60;1.70;;;;;;;;;;5073756;28;20021;-67
2021/08/23 15:33:44;;;;;;;4.35;1.98;;;;;;;;;;5073996;28;20024;-67
2021/08/23 15:36:10;;;;;;;2.85;1.65;;;;;;;;;;5073945;28;20099;-67
2021/08/23 15:38:37;;;;;;;3.65;2.00;;;;;;;;;;5073096;28;20032;-67
2021/08/23 15:41:03;;;;;;;2.88;1.90;;;;;;;;;;5073890;28;20047;-67
2021/08/23 15:43:31;;;;;;;4.75;1.80;;;;;;;;;;5073880;28;20025;-67
2021/08/23 15:45:57;;;;;;;2.83;1.45;;;;;;;;;;5073461;28;20021;-67
2021/08/23 15:48:23;;;;;;;3.00;1.77;;;;;;;;;;5073754;28;20033;-67
2021/08/23 15:50:50;;;;;;;3.00;1.80;;;;;;;;;;5073771;28;20025;-67
2021/08/23 15:53:16;;;;;;;2.40;1.50;;;;;;;;;;5073407;28;20442;-67
2021/08/23 15:55:42;;;;;;;2.70;1.73;;;;;;;;;;5073792;28;20024;-68